sensor_id;sensor_type;location;lat;lon;timestamp;P1;durP1;ratioP1;P2;durP2;ratioP2
18104;SDS011;9179;50.968;3.134;2023-05-10T00:01:34;17.38;;;13.05;;
18104;SDS011;9179;50.968;3.134;2023-05-10T00:04:01;15.80;;;11.82;;
18104;SDS011;9179;50.968;3.134;2023-05-10T00:06:28;15.82;;;12.52;;
18104;SDS011;9179;50.968;3.134;2023-05-10T00:08:56;15.20;;;11.70;;
18104;SDS011;9179;50.968;3.134;2023-05-10T00:11:24;13.25;;;11.57;;
18104;SDS011;9179;50.968;3.134;2023-05-10T00:13:51;14.18;;;11.38;;
18104;SDS011;9179;50.968;3.134;2023-05-10T00:16:18;14.90;;;12.75;;
18104;SDS011;9179;50.968;3.134;2023-05-10T00:18:45;12.65;;;11.00;;
18104;SDS011;9179;50.968;3.134;2023-05-10T00:21:12;14.00;;;12.50;;
18104;SDS011;9179;50.968;3.134;2023-05-10T00:23:39;14.68;;;12.07;;
18104;SDS011;9179;50.968;3.134;2023-05-10T00:26:06;15.68;;;12.50;;
18104;SDS011;9179;50.968;3.134;2023-05-10T00:28:34;15.00;;;12.93;;
18104;SDS011;9179;50.968;3.134;2023-05-10T00:31:01;17.77;;;13.32;;
18104;SDS011;9179;50.968;3.134;2023-05-10T00:33:28;17.90;;;14.13;;
18104;SDS011;9179;50.968;3.134;2023-05-10T00:35:55;19.20;;;13.55;;
18104;SDS011;9179;50.968;3.134;2023-05-10T00:38:22;17.10;;;13.82;;
18104;SDS011;9179;50.968;3.134;2023-05-10T00:40:49;18.77;;;13.98;;
18104;SDS011;9179;50.968;3.134;2023-05-10T00:43:16;16.33;;;13.23;;
18104;SDS011;9179;50.968;3.134;2023-05-10T00:45:44;18.77;;;14.35;;
18104;SDS011;9179;50.968;3.134;2023-05-10T00:48:11;18.73;;;15.20;;
18104;SDS011;9179;50.968;3.134;2023-05-10T00:50:39;18.17;;;13.10;;
18104;SDS011;9179;50.968;3.134;2023-05-10T00:53:06;18.67;;;15.00;;
18104;SDS011;9179;50.968;3.134;2023-05-10T00:55:34;15.38;;;12.40;;
18104;SDS011;9179;50.968;3.134;2023-05-10T00:58:01;17.50;;;12.65;;
18104;SDS011;9179;50.968;3.134;2023-05-10T01:00:28;16.52;;;12.90;;
18104;SDS011;9179;50.968;3.134;2023-05-10T01:02:57;18.42;;;14.07;;
18104;SDS011;9179;50.968;3.134;2023-05-10T01:05:24;15.95;;;13.07;;
18104;SDS011;9179;50.968;3.134;2023-05-10T01:07:52;18.55;;;13.82;;
18104;SDS011;9179;50.968;3.134;2023-05-10T01:10:19;18.63;;;13.35;;
18104;SDS011;9179;50.968;3.134;2023-05-10T01:12:46;16.40;;;13.50;;
18104;SDS011;9179;50.968;3.134;2023-05-10T01:15:13;15.88;;;13.35;;
18104;SDS011;9179;50.968;3.134;2023-05-10T01:17:42;18.17;;;13.63;;
18104;SDS011;9179;50.968;3.134;2023-05-10T01:20:12;17.05;;;12.82;;
18104;SDS011;9179;50.968;3.134;2023-05-10T01:22:43;14.70;;;13.07;;
18104;SDS011;9179;50.968;3.134;2023-05-10T01:25:37;16.60;;;10.93;;
18104;SDS011;9179;50.968;3.134;2023-05-10T01:31:28;19.23;;;13.68;;
18104;SDS011;9179;50.968;3.134;2023-05-10T01:34:07;12.85;;;11.15;;
18104;SDS011;9179;50.968;3.134;2023-05-10T01:36:38;18.98;;;13.13;;
18104;SDS011;9179;50.968;3.134;2023-05-10T01:39:09;15.77;;;12.13;;
18104;SDS011;9179;50.968;3.134;2023-05-10T01:41:43;16.95;;;13.73;;
18104;SDS011;9179;50.968;3.134;2023-05-10T01:44:16;17.38;;;13.73;;
18104;SDS011;9179;50.968;3.134;2023-05-10T01:46:57;16.08;;;13.48;;
18104;SDS011;9179;50.968;3.134;2023-05-10T01:49:33;15.10;;;12.48;;
18104;SDS011;9179;50.968;3.134;2023-05-10T01:52:06;18.83;;;13.73;;
18104;SDS011;9179;50.968;3.134;2023-05-10T01:54:37;14.77;;;13.10;;
18104;SDS011;9179;50.968;3.134;2023-05-10T01:57:07;15.27;;;12.98;;
18104;SDS011;9179;50.968;3.134;2023-05-10T01:59:37;17.63;;;13.45;;
18104;SDS011;9179;50.968;3.134;2023-05-10T02:02:06;16.38;;;13.52;;
18104;SDS011;9179;50.968;3.134;2023-05-10T02:04:38;15.93;;;14.00;;
18104;SDS011;9179;50.968;3.134;2023-05-10T02:07:06;20.67;;;14.30;;
18104;SDS011;9179;50.968;3.134;2023-05-10T02:09:34;15.70;;;13.82;;
18104;SDS011;9179;50.968;3.134;2023-05-10T02:12:02;16.85;;;12.88;;
18104;SDS011;9179;50.968;3.134;2023-05-10T02:14:32;17.02;;;14.25;;
18104;SDS011;9179;50.968;3.134;2023-05-10T02:17:02;18.20;;;14.05;;
18104;SDS011;9179;50.968;3.134;2023-05-10T02:19:32;19.70;;;15.65;;
18104;SDS011;9179;50.968;3.134;2023-05-10T02:22:01;19.40;;;14.18;;
18104;SDS011;9179;50.968;3.134;2023-05-10T02:24:30;17.13;;;13.70;;
18104;SDS011;9179;50.968;3.134;2023-05-10T02:26:59;17.10;;;13.23;;
18104;SDS011;9179;50.968;3.134;2023-05-10T02:29:28;16.92;;;12.88;;
18104;SDS011;9179;50.968;3.134;2023-05-10T02:31:56;21.35;;;15.32;;
18104;SDS011;9179;50.968;3.134;2023-05-10T02:34:25;16.80;;;14.32;;
18104;SDS011;9179;50.968;3.134;2023-05-10T02:36:53;21.35;;;15.60;;
18104;SDS011;9179;50.968;3.134;2023-05-10T02:39:23;16.77;;;15.00;;
18104;SDS011;9179;50.968;3.134;2023-05-10T02:41:53;17.85;;;13.93;;
18104;SDS011;9179;50.968;3.134;2023-05-10T02:44:21;16.73;;;14.25;;
18104;SDS011;9179;50.968;3.134;2023-05-10T02:46:49;17.80;;;14.27;;
18104;SDS011;9179;50.968;3.134;2023-05-10T02:49:17;18.02;;;13.30;;
18104;SDS011;9179;50.968;3.134;2023-05-10T02:51:47;18.88;;;14.55;;
18104;SDS011;9179;50.968;3.134;2023-05-10T02:54:18;20.45;;;14.85;;
18104;SDS011;9179;50.968;3.134;2023-05-10T02:56:49;15.90;;;13.73;;
18104;SDS011;9179;50.968;3.134;2023-05-10T02:59:18;15.70;;;14.07;;
18104;SDS011;9179;50.968;3.134;2023-05-10T03:01:45;20.30;;;15.25;;
18104;SDS011;9179;50.968;3.134;2023-05-10T03:04:12;26.05;;;19.40;;
18104;SDS011;9179;50.968;3.134;2023-05-10T03:06:40;24.35;;;18.35;;
18104;SDS011;9179;50.968;3.134;2023-05-10T03:09:07;32.00;;;19.92;;
18104;SDS011;9179;50.968;3.134;2023-05-10T03:11:39;26.58;;;20.80;;
18104;SDS011;9179;50.968;3.134;2023-05-10T03:14:21;29.17;;;20.95;;
18104;SDS011;9179;50.968;3.134;2023-05-10T03:16:56;31.90;;;23.15;;
18104;SDS011;9179;50.968;3.134;2023-05-10T03:19:27;30.63;;;21.00;;
18104;SDS011;9179;50.968;3.134;2023-05-10T03:21:59;29.67;;;21.25;;
18104;SDS011;9179;50.968;3.134;2023-05-10T03:24:29;31.30;;;21.92;;
18104;SDS011;9179;50.968;3.134;2023-05-10T03:26:57;35.53;;;22.30;;
18104;SDS011;9179;50.968;3.134;2023-05-10T03:29:29;30.92;;;22.13;;
18104;SDS011;9179;50.968;3.134;2023-05-10T03:31:57;28.50;;;20.40;;
18104;SDS011;9179;50.968;3.134;2023-05-10T03:34:25;29.90;;;21.00;;
18104;SDS011;9179;50.968;3.134;2023-05-10T03:36:52;28.25;;;19.77;;
18104;SDS011;9179;50.968;3.134;2023-05-10T03:39:19;33.88;;;20.63;;
18104;SDS011;9179;50.968;3.134;2023-05-10T03:41:46;32.63;;;21.20;;
18104;SDS011;9179;50.968;3.134;2023-05-10T03:44:13;27.25;;;20.05;;
18104;SDS011;9179;50.968;3.134;2023-05-10T03:46:42;34.20;;;22.55;;
18104;SDS011;9179;50.968;3.134;2023-05-10T03:49:09;26.38;;;20.10;;
18104;SDS011;9179;50.968;3.134;2023-05-10T03:51:37;27.55;;;19.10;;
18104;SDS011;9179;50.968;3.134;2023-05-10T03:54:03;29.33;;;21.88;;
18104;SDS011;9179;50.968;3.134;2023-05-10T03:56:30;28.60;;;21.50;;
18104;SDS011;9179;50.968;3.134;2023-05-10T03:58:59;29.85;;;21.25;;
18104;SDS011;9179;50.968;3.134;2023-05-10T04:01:26;25.55;;;19.23;;
18104;SDS011;9179;50.968;3.134;2023-05-10T04:03:54;29.20;;;21.58;;
18104;SDS011;9179;50.968;3.134;2023-05-10T04:06:21;30.88;;;21.23;;
18104;SDS011;9179;50.968;3.134;2023-05-10T04:08:48;27.98;;;18.92;;
18104;SDS011;9179;50.968;3.134;2023-05-10T04:11:15;28.55;;;20.55;;
18104;SDS011;9179;50.968;3.134;2023-05-10T04:13:42;30.52;;;22.02;;
18104;SDS011;9179;50.968;3.134;2023-05-10T04:16:09;28.60;;;20.75;;
18104;SDS011;9179;50.968;3.134;2023-05-10T04:18:36;27.42;;;20.38;;
18104;SDS011;9179;50.968;3.134;2023-05-10T04:21:04;33.78;;;21.85;;
18104;SDS011;9179;50.968;3.134;2023-05-10T04:23:37;30.40;;;20.27;;
18104;SDS011;9179;50.968;3.134;2023-05-10T04:26:04;30.05;;;19.85;;
18104;SDS011;9179;50.968;3.134;2023-05-10T04:28:31;29.42;;;22.58;;
18104;SDS011;9179;50.968;3.134;2023-05-10T04:31:01;33.20;;;21.85;;
18104;SDS011;9179;50.968;3.134;2023-05-10T04:33:28;29.15;;;20.88;;
18104;SDS011;9179;50.968;3.134;2023-05-10T04:35:55;28.50;;;20.50;;
18104;SDS011;9179;50.968;3.134;2023-05-10T04:38:24;30.40;;;20.27;;
18104;SDS011;9179;50.968;3.134;2023-05-10T04:40:52;30.05;;;21.00;;
18104;SDS011;9179;50.968;3.134;2023-05-10T04:43:19;27.90;;;19.90;;
18104;SDS011;9179;50.968;3.134;2023-05-10T04:45:46;28.95;;;20.88;;
18104;SDS011;9179;50.968;3.134;2023-05-10T04:48:13;29.33;;;18.98;;
18104;SDS011;9179;50.968;3.134;2023-05-10T04:50:40;25.65;;;19.10;;
18104;SDS011;9179;50.968;3.134;2023-05-10T04:53:07;23.23;;;19.13;;
18104;SDS011;9179;50.968;3.134;2023-05-10T04:55:35;28.35;;;19.67;;
18104;SDS011;9179;50.968;3.134;2023-05-10T04:58:02;25.08;;;18.38;;
18104;SDS011;9179;50.968;3.134;2023-05-10T05:00:29;21.20;;;16.52;;
18104;SDS011;9179;50.968;3.134;2023-05-10T05:02:56;21.88;;;16.42;;
18104;SDS011;9179;50.968;3.134;2023-05-10T05:05:23;23.55;;;17.73;;
18104;SDS011;9179;50.968;3.134;2023-05-10T05:07:50;20.52;;;16.77;;
18104;SDS011;9179;50.968;3.134;2023-05-10T05:10:17;23.13;;;16.73;;
18104;SDS011;9179;50.968;3.134;2023-05-10T05:12:46;22.98;;;17.10;;
18104;SDS011;9179;50.968;3.134;2023-05-10T05:15:13;24.02;;;16.52;;
18104;SDS011;9179;50.968;3.134;2023-05-10T05:17:41;23.88;;;16.92;;
18104;SDS011;9179;50.968;3.134;2023-05-10T05:20:08;22.17;;;16.10;;
18104;SDS011;9179;50.968;3.134;2023-05-10T05:22:36;24.13;;;16.33;;
18104;SDS011;9179;50.968;3.134;2023-05-10T05:25:04;20.98;;;16.58;;
18104;SDS011;9179;50.968;3.134;2023-05-10T05:27:32;22.25;;;17.15;;
18104;SDS011;9179;50.968;3.134;2023-05-10T05:30:00;20.27;;;15.13;;
18104;SDS011;9179;50.968;3.134;2023-05-10T05:32:27;25.27;;;16.25;;
18104;SDS011;9179;50.968;3.134;2023-05-10T05:34:54;22.75;;;16.67;;
18104;SDS011;9179;50.968;3.134;2023-05-10T05:37:21;17.98;;;15.00;;
18104;SDS011;9179;50.968;3.134;2023-05-10T05:39:49;18.35;;;14.80;;
18104;SDS011;9179;50.968;3.134;2023-05-10T05:42:16;17.63;;;14.82;;
18104;SDS011;9179;50.968;3.134;2023-05-10T05:44:43;19.80;;;15.65;;
18104;SDS011;9179;50.968;3.134;2023-05-10T05:47:12;20.23;;;15.38;;
18104;SDS011;9179;50.968;3.134;2023-05-10T05:49:39;21.02;;;16.48;;
18104;SDS011;9179;50.968;3.134;2023-05-10T05:52:06;18.17;;;15.15;;
18104;SDS011;9179;50.968;3.134;2023-05-10T05:54:33;16.65;;;14.90;;
18104;SDS011;9179;50.968;3.134;2023-05-10T05:57:00;18.98;;;15.40;;
18104;SDS011;9179;50.968;3.134;2023-05-10T05:59:27;18.60;;;15.50;;
18104;SDS011;9179;50.968;3.134;2023-05-10T06:01:54;19.33;;;15.77;;
18104;SDS011;9179;50.968;3.134;2023-05-10T06:04:22;22.92;;;16.73;;
18104;SDS011;9179;50.968;3.134;2023-05-10T06:06:49;20.15;;;16.38;;
18104;SDS011;9179;50.968;3.134;2023-05-10T06:09:16;21.73;;;17.30;;
18104;SDS011;9179;50.968;3.134;2023-05-10T06:11:43;20.67;;;17.25;;
18104;SDS011;9179;50.968;3.134;2023-05-10T06:14:10;21.80;;;17.08;;
18104;SDS011;9179;50.968;3.134;2023-05-10T06:16:37;18.23;;;16.08;;
18104;SDS011;9179;50.968;3.134;2023-05-10T06:19:04;19.83;;;16.75;;
18104;SDS011;9179;50.968;3.134;2023-05-10T06:21:32;18.00;;;15.38;;
18104;SDS011;9179;50.968;3.134;2023-05-10T06:23:59;20.05;;;16.33;;
18104;SDS011;9179;50.968;3.134;2023-05-10T06:26:26;20.33;;;15.77;;
18104;SDS011;9179;50.968;3.134;2023-05-10T06:28:53;18.80;;;16.27;;
18104;SDS011;9179;50.968;3.134;2023-05-10T06:31:20;19.23;;;17.05;;
18104;SDS011;9179;50.968;3.134;2023-05-10T06:33:47;18.38;;;16.20;;
18104;SDS011;9179;50.968;3.134;2023-05-10T06:36:14;20.05;;;17.73;;
18104;SDS011;9179;50.968;3.134;2023-05-10T06:38:42;19.08;;;16.92;;
18104;SDS011;9179;50.968;3.134;2023-05-10T06:41:09;18.40;;;15.43;;
18104;SDS011;9179;50.968;3.134;2023-05-10T06:43:36;19.83;;;16.35;;
18104;SDS011;9179;50.968;3.134;2023-05-10T06:46:05;18.90;;;16.65;;
18104;SDS011;9179;50.968;3.134;2023-05-10T06:48:32;19.50;;;16.42;;
18104;SDS011;9179;50.968;3.134;2023-05-10T06:50:59;20.90;;;17.02;;
18104;SDS011;9179;50.968;3.134;2023-05-10T06:53:26;19.65;;;16.40;;
18104;SDS011;9179;50.968;3.134;2023-05-10T06:55:55;19.67;;;16.83;;
18104;SDS011;9179;50.968;3.134;2023-05-10T06:58:22;18.05;;;16.15;;
18104;SDS011;9179;50.968;3.134;2023-05-10T07:00:49;17.48;;;15.60;;
18104;SDS011;9179;50.968;3.134;2023-05-10T07:03:15;21.75;;;16.67;;
18104;SDS011;9179;50.968;3.134;2023-05-10T07:05:42;17.35;;;15.25;;
18104;SDS011;9179;50.968;3.134;2023-05-10T07:08:09;18.73;;;16.35;;
18104;SDS011;9179;50.968;3.134;2023-05-10T07:10:36;20.02;;;16.80;;
18104;SDS011;9179;50.968;3.134;2023-05-10T07:13:05;17.45;;;15.43;;
18104;SDS011;9179;50.968;3.134;2023-05-10T07:15:31;20.13;;;16.00;;
18104;SDS011;9179;50.968;3.134;2023-05-10T07:17:58;19.48;;;16.33;;
18104;SDS011;9179;50.968;3.134;2023-05-10T07:20:25;19.13;;;15.93;;
18104;SDS011;9179;50.968;3.134;2023-05-10T07:22:53;22.83;;;18.65;;
18104;SDS011;9179;50.968;3.134;2023-05-10T07:25:19;19.75;;;17.27;;
18104;SDS011;9179;50.968;3.134;2023-05-10T07:27:46;18.80;;;16.85;;
18104;SDS011;9179;50.968;3.134;2023-05-10T07:30:15;17.80;;;15.93;;
18104;SDS011;9179;50.968;3.134;2023-05-10T07:32:42;14.65;;;13.18;;
18104;SDS011;9179;50.968;3.134;2023-05-10T07:35:10;14.23;;;12.73;;
18104;SDS011;9179;50.968;3.134;2023-05-10T07:37:36;14.05;;;11.57;;
18104;SDS011;9179;50.968;3.134;2023-05-10T07:40:04;13.45;;;12.10;;
18104;SDS011;9179;50.968;3.134;2023-05-10T07:42:32;13.75;;;12.25;;
18104;SDS011;9179;50.968;3.134;2023-05-10T07:44:58;12.82;;;11.43;;
18104;SDS011;9179;50.968;3.134;2023-05-10T07:47:27;10.75;;;9.75;;
18104;SDS011;9179;50.968;3.134;2023-05-10T07:49:54;12.38;;;11.18;;
18104;SDS011;9179;50.968;3.134;2023-05-10T07:52:21;12.38;;;11.18;;
18104;SDS011;9179;50.968;3.134;2023-05-10T07:54:47;12.77;;;11.43;;
18104;SDS011;9179;50.968;3.134;2023-05-10T07:57:15;12.95;;;11.75;;
18104;SDS011;9179;50.968;3.134;2023-05-10T07:59:42;13.38;;;11.85;;
18104;SDS011;9179;50.968;3.134;2023-05-10T08:02:10;13.95;;;12.65;;
18104;SDS011;9179;50.968;3.134;2023-05-10T08:04:39;15.60;;;13.77;;
18104;SDS011;9179;50.968;3.134;2023-05-10T08:07:06;14.38;;;12.98;;
18104;SDS011;9179;50.968;3.134;2023-05-10T08:09:32;15.20;;;13.60;;
18104;SDS011;9179;50.968;3.134;2023-05-10T08:11:59;14.93;;;13.35;;
18104;SDS011;9179;50.968;3.134;2023-05-10T08:14:27;13.68;;;12.27;;
18104;SDS011;9179;50.968;3.134;2023-05-10T08:16:54;12.65;;;11.43;;
18104;SDS011;9179;50.968;3.134;2023-05-10T08:19:22;11.45;;;10.38;;
18104;SDS011;9179;50.968;3.134;2023-05-10T08:21:50;11.65;;;10.50;;
18104;SDS011;9179;50.968;3.134;2023-05-10T08:24:18;12.38;;;11.07;;
18104;SDS011;9179;50.968;3.134;2023-05-10T08:26:45;11.27;;;10.27;;
18104;SDS011;9179;50.968;3.134;2023-05-10T08:29:12;13.30;;;12.07;;
18104;SDS011;9179;50.968;3.134;2023-05-10T08:31:39;13.50;;;12.23;;
18104;SDS011;9179;50.968;3.134;2023-05-10T08:34:06;13.80;;;12.50;;
18104;SDS011;9179;50.968;3.134;2023-05-10T08:36:33;15.13;;;13.45;;
18104;SDS011;9179;50.968;3.134;2023-05-10T08:39:02;15.10;;;13.70;;
18104;SDS011;9179;50.968;3.134;2023-05-10T08:41:29;15.77;;;14.27;;
18104;SDS011;9179;50.968;3.134;2023-05-10T08:43:59;15.23;;;13.77;;
18104;SDS011;9179;50.968;3.134;2023-05-10T08:46:30;14.88;;;13.48;;
18104;SDS011;9179;50.968;3.134;2023-05-10T08:48:59;16.70;;;15.02;;
18104;SDS011;9179;50.968;3.134;2023-05-10T08:51:29;17.83;;;14.90;;
18104;SDS011;9179;50.968;3.134;2023-05-10T08:54:02;19.83;;;16.05;;
18104;SDS011;9179;50.968;3.134;2023-05-10T08:56:30;16.83;;;14.75;;
18104;SDS011;9179;50.968;3.134;2023-05-10T08:58:57;18.60;;;16.65;;
18104;SDS011;9179;50.968;3.134;2023-05-10T09:01:24;18.75;;;16.88;;
18104;SDS011;9179;50.968;3.134;2023-05-10T09:03:53;20.13;;;18.00;;
18104;SDS011;9179;50.968;3.134;2023-05-10T09:06:20;18.40;;;16.55;;
18104;SDS011;9179;50.968;3.134;2023-05-10T09:08:47;18.67;;;15.90;;
18104;SDS011;9179;50.968;3.134;2023-05-10T09:11:15;18.85;;;17.00;;
18104;SDS011;9179;50.968;3.134;2023-05-10T09:13:43;18.50;;;16.60;;
18104;SDS011;9179;50.968;3.134;2023-05-10T09:16:10;18.65;;;15.57;;
18104;SDS011;9179;50.968;3.134;2023-05-10T09:18:38;17.73;;;15.82;;
18104;SDS011;9179;50.968;3.134;2023-05-10T09:21:05;16.60;;;14.55;;
18104;SDS011;9179;50.968;3.134;2023-05-10T09:23:32;16.75;;;14.98;;
18104;SDS011;9179;50.968;3.134;2023-05-10T09:26:02;18.33;;;15.10;;
18104;SDS011;9179;50.968;3.134;2023-05-10T09:28:32;17.25;;;15.02;;
18104;SDS011;9179;50.968;3.134;2023-05-10T09:31:00;19.17;;;14.25;;
18104;SDS011;9179;50.968;3.134;2023-05-10T09:33:27;18.08;;;12.68;;
18104;SDS011;9179;50.968;3.134;2023-05-10T09:35:54;14.40;;;12.90;;
18104;SDS011;9179;50.968;3.134;2023-05-10T09:38:20;15.82;;;13.40;;
18104;SDS011;9179;50.968;3.134;2023-05-10T09:40:50;19.70;;;13.35;;
18104;SDS011;9179;50.968;3.134;2023-05-10T09:43:20;14.50;;;12.88;;
18104;SDS011;9179;50.968;3.134;2023-05-10T09:45:49;14.98;;;12.63;;
18104;SDS011;9179;50.968;3.134;2023-05-10T09:48:16;14.60;;;13.00;;
18104;SDS011;9179;50.968;3.134;2023-05-10T09:50:43;15.30;;;11.85;;
18104;SDS011;9179;50.968;3.134;2023-05-10T09:53:10;13.38;;;11.98;;
18104;SDS011;9179;50.968;3.134;2023-05-10T09:55:42;15.27;;;12.38;;
18104;SDS011;9179;50.968;3.134;2023-05-10T09:58:12;13.77;;;11.50;;
18104;SDS011;9179;50.968;3.134;2023-05-10T10:00:40;12.90;;;11.63;;
18104;SDS011;9179;50.968;3.134;2023-05-10T10:03:13;13.88;;;11.25;;
18104;SDS011;9179;50.968;3.134;2023-05-10T10:05:41;14.45;;;11.45;;
18104;SDS011;9179;50.968;3.134;2023-05-10T10:08:09;11.10;;;10.10;;
18104;SDS011;9179;50.968;3.134;2023-05-10T10:10:36;12.23;;;11.02;;
18104;SDS011;9179;50.968;3.134;2023-05-10T10:13:05;12.27;;;10.15;;
18104;SDS011;9179;50.968;3.134;2023-05-10T10:15:32;13.80;;;11.50;;
18104;SDS011;9179;50.968;3.134;2023-05-10T10:18:00;9.32;;;8.43;;
18104;SDS011;9179;50.968;3.134;2023-05-10T10:20:30;10.07;;;8.90;;
18104;SDS011;9179;50.968;3.134;2023-05-10T10:22:57;9.73;;;8.80;;
18104;SDS011;9179;50.968;3.134;2023-05-10T10:25:24;8.48;;;7.55;;
18104;SDS011;9179;50.968;3.134;2023-05-10T10:28:03;10.27;;;9.25;;
18104;SDS011;9179;50.968;3.134;2023-05-10T10:30:43;14.13;;;8.95;;
18104;SDS011;9179;50.968;3.134;2023-05-10T10:33:22;11.85;;;9.05;;
18104;SDS011;9179;50.968;3.134;2023-05-10T10:36:04;10.02;;;7.57;;
18104;SDS011;9179;50.968;3.134;2023-05-10T10:41:28;9.00;;;8.10;;
18104;SDS011;9179;50.968;3.134;2023-05-10T10:47:04;7.57;;;6.78;;
18104;SDS011;9179;50.968;3.134;2023-05-10T10:49:38;8.73;;;6.93;;
18104;SDS011;9179;50.968;3.134;2023-05-10T10:52:26;9.10;;;7.82;;
18104;SDS011;9179;50.968;3.134;2023-05-10T10:55:00;7.88;;;7.07;;
18104;SDS011;9179;50.968;3.134;2023-05-10T10:57:31;7.53;;;6.78;;
18104;SDS011;9179;50.968;3.134;2023-05-10T11:02:47;8.77;;;6.68;;
18104;SDS011;9179;50.968;3.134;2023-05-10T11:08:13;12.60;;;7.80;;
18104;SDS011;9179;50.968;3.134;2023-05-10T11:10:49;9.30;;;7.40;;
18104;SDS011;9179;50.968;3.134;2023-05-10T11:13:28;7.85;;;6.88;;
18104;SDS011;9179;50.968;3.134;2023-05-10T11:15:57;7.90;;;7.10;;
18104;SDS011;9179;50.968;3.134;2023-05-10T11:18:25;10.10;;;7.07;;
18104;SDS011;9179;50.968;3.134;2023-05-10T11:20:55;8.52;;;6.68;;
18104;SDS011;9179;50.968;3.134;2023-05-10T11:23:28;7.18;;;6.07;;
18104;SDS011;9179;50.968;3.134;2023-05-10T11:25:56;7.85;;;6.07;;
18104;SDS011;9179;50.968;3.134;2023-05-10T11:28:23;8.10;;;6.38;;
18104;SDS011;9179;50.968;3.134;2023-05-10T11:30:51;9.98;;;7.50;;
18104;SDS011;9179;50.968;3.134;2023-05-10T11:33:19;9.00;;;6.90;;
18104;SDS011;9179;50.968;3.134;2023-05-10T11:35:46;12.82;;;7.25;;
18104;SDS011;9179;50.968;3.134;2023-05-10T11:38:13;10.75;;;5.82;;
18104;SDS011;9179;50.968;3.134;2023-05-10T11:40:41;10.50;;;6.82;;
18104;SDS011;9179;50.968;3.134;2023-05-10T11:43:09;9.20;;;5.50;;
18104;SDS011;9179;50.968;3.134;2023-05-10T11:45:37;6.32;;;4.55;;
18104;SDS011;9179;50.968;3.134;2023-05-10T11:48:06;6.07;;;4.50;;
18104;SDS011;9179;50.968;3.134;2023-05-10T11:50:33;6.57;;;5.05;;
18104;SDS011;9179;50.968;3.134;2023-05-10T11:53:00;9.10;;;4.93;;
18104;SDS011;9179;50.968;3.134;2023-05-10T11:55:27;7.35;;;6.35;;
18104;SDS011;9179;50.968;3.134;2023-05-10T11:58:00;6.43;;;5.85;;
18104;SDS011;9179;50.968;3.134;2023-05-10T12:00:28;6.20;;;5.60;;
18104;SDS011;9179;50.968;3.134;2023-05-10T12:02:56;6.28;;;5.03;;
18104;SDS011;9179;50.968;3.134;2023-05-10T12:05:23;5.70;;;5.20;;
18104;SDS011;9179;50.968;3.134;2023-05-10T12:07:51;8.52;;;5.18;;
18104;SDS011;9179;50.968;3.134;2023-05-10T12:10:18;6.85;;;5.35;;
18104;SDS011;9179;50.968;3.134;2023-05-10T12:12:52;5.30;;;4.85;;
18104;SDS011;9179;50.968;3.134;2023-05-10T12:15:21;5.53;;;3.95;;
18104;SDS011;9179;50.968;3.134;2023-05-10T12:17:48;5.07;;;3.40;;
18104;SDS011;9179;50.968;3.134;2023-05-10T12:20:16;4.03;;;2.90;;
18104;SDS011;9179;50.968;3.134;2023-05-10T12:22:44;7.10;;;4.13;;
18104;SDS011;9179;50.968;3.134;2023-05-10T12:25:12;7.68;;;4.70;;
18104;SDS011;9179;50.968;3.134;2023-05-10T12:27:39;9.82;;;5.32;;
18104;SDS011;9179;50.968;3.134;2023-05-10T12:30:07;8.57;;;4.47;;
18104;SDS011;9179;50.968;3.134;2023-05-10T12:32:40;8.23;;;4.75;;
18104;SDS011;9179;50.968;3.134;2023-05-10T12:35:07;8.60;;;4.35;;
18104;SDS011;9179;50.968;3.134;2023-05-10T12:37:34;6.93;;;4.47;;
18104;SDS011;9179;50.968;3.134;2023-05-10T12:40:05;8.80;;;3.92;;
18104;SDS011;9179;50.968;3.134;2023-05-10T12:42:34;10.15;;;4.07;;
18104;SDS011;9179;50.968;3.134;2023-05-10T12:45:01;4.22;;;3.47;;
18104;SDS011;9179;50.968;3.134;2023-05-10T12:47:29;7.78;;;4.40;;
18104;SDS011;9179;50.968;3.134;2023-05-10T12:49:57;6.60;;;4.30;;
18104;SDS011;9179;50.968;3.134;2023-05-10T12:52:26;5.32;;;4.25;;
18104;SDS011;9179;50.968;3.134;2023-05-10T12:54:53;6.53;;;3.65;;
18104;SDS011;9179;50.968;3.134;2023-05-10T12:57:20;7.80;;;3.42;;
18104;SDS011;9179;50.968;3.134;2023-05-10T12:59:47;8.38;;;4.07;;
18104;SDS011;9179;50.968;3.134;2023-05-10T13:02:14;8.35;;;4.90;;
18104;SDS011;9179;50.968;3.134;2023-05-10T13:04:43;8.55;;;4.45;;
18104;SDS011;9179;50.968;3.134;2023-05-10T13:07:12;4.85;;;3.10;;
18104;SDS011;9179;50.968;3.134;2023-05-10T13:09:39;4.53;;;3.67;;
18104;SDS011;9179;50.968;3.134;2023-05-10T13:12:06;4.85;;;3.35;;
18104;SDS011;9179;50.968;3.134;2023-05-10T13:14:33;6.68;;;3.70;;
18104;SDS011;9179;50.968;3.134;2023-05-10T13:17:00;5.63;;;3.47;;
18104;SDS011;9179;50.968;3.134;2023-05-10T13:19:27;6.28;;;3.38;;
18104;SDS011;9179;50.968;3.134;2023-05-10T13:21:54;4.55;;;3.70;;
18104;SDS011;9179;50.968;3.134;2023-05-10T13:24:22;4.05;;;2.95;;
18104;SDS011;9179;50.968;3.134;2023-05-10T13:26:49;5.35;;;3.42;;
18104;SDS011;9179;50.968;3.134;2023-05-10T13:29:16;9.00;;;3.45;;
18104;SDS011;9179;50.968;3.134;2023-05-10T13:31:44;5.82;;;3.97;;
18104;SDS011;9179;50.968;3.134;2023-05-10T13:34:11;5.18;;;3.13;;
18104;SDS011;9179;50.968;3.134;2023-05-10T13:36:38;5.32;;;3.50;;
18104;SDS011;9179;50.968;3.134;2023-05-10T13:39:05;4.18;;;3.60;;
18104;SDS011;9179;50.968;3.134;2023-05-10T13:41:33;5.85;;;3.72;;
18104;SDS011;9179;50.968;3.134;2023-05-10T13:44:01;6.28;;;3.17;;
18104;SDS011;9179;50.968;3.134;2023-05-10T13:46:28;6.47;;;4.43;;
18104;SDS011;9179;50.968;3.134;2023-05-10T13:48:56;8.93;;;4.10;;
18104;SDS011;9179;50.968;3.134;2023-05-10T13:51:23;7.68;;;4.60;;
18104;SDS011;9179;50.968;3.134;2023-05-10T13:53:49;7.13;;;4.35;;
18104;SDS011;9179;50.968;3.134;2023-05-10T13:56:17;7.65;;;3.85;;
18104;SDS011;9179;50.968;3.134;2023-05-10T13:58:45;6.43;;;5.03;;
18104;SDS011;9179;50.968;3.134;2023-05-10T14:01:12;4.78;;;4.25;;
18104;SDS011;9179;50.968;3.134;2023-05-10T14:03:39;7.78;;;4.18;;
18104;SDS011;9179;50.968;3.134;2023-05-10T14:06:06;6.35;;;4.43;;
18104;SDS011;9179;50.968;3.134;2023-05-10T14:08:34;7.18;;;4.53;;
18104;SDS011;9179;50.968;3.134;2023-05-10T14:11:01;7.00;;;4.63;;
18104;SDS011;9179;50.968;3.134;2023-05-10T14:13:28;8.98;;;5.00;;
18104;SDS011;9179;50.968;3.134;2023-05-10T14:15:56;5.80;;;3.60;;
18104;SDS011;9179;50.968;3.134;2023-05-10T14:18:25;7.93;;;3.75;;
18104;SDS011;9179;50.968;3.134;2023-05-10T14:20:52;4.68;;;3.63;;
18104;SDS011;9179;50.968;3.134;2023-05-10T14:23:21;5.57;;;3.35;;
18104;SDS011;9179;50.968;3.134;2023-05-10T14:25:49;5.78;;;3.08;;
18104;SDS011;9179;50.968;3.134;2023-05-10T14:28:16;4.75;;;3.15;;
18104;SDS011;9179;50.968;3.134;2023-05-10T14:30:45;5.22;;;3.28;;
18104;SDS011;9179;50.968;3.134;2023-05-10T14:33:13;7.25;;;3.53;;
18104;SDS011;9179;50.968;3.134;2023-05-10T14:35:40;6.35;;;3.15;;
18104;SDS011;9179;50.968;3.134;2023-05-10T14:38:07;7.65;;;2.72;;
18104;SDS011;9179;50.968;3.134;2023-05-10T14:40:35;5.22;;;2.42;;
18104;SDS011;9179;50.968;3.134;2023-05-10T14:43:02;6.72;;;2.65;;
18104;SDS011;9179;50.968;3.134;2023-05-10T14:45:30;6.63;;;2.72;;
18104;SDS011;9179;50.968;3.134;2023-05-10T14:47:57;5.65;;;2.72;;
18104;SDS011;9179;50.968;3.134;2023-05-10T14:50:25;4.80;;;2.65;;
18104;SDS011;9179;50.968;3.134;2023-05-10T14:52:52;2.83;;;2.25;;
18104;SDS011;9179;50.968;3.134;2023-05-10T14:55:19;5.78;;;2.78;;
18104;SDS011;9179;50.968;3.134;2023-05-10T14:57:46;5.63;;;2.75;;
18104;SDS011;9179;50.968;3.134;2023-05-10T15:00:15;5.28;;;2.42;;
18104;SDS011;9179;50.968;3.134;2023-05-10T15:02:44;3.53;;;2.85;;
18104;SDS011;9179;50.968;3.134;2023-05-10T15:05:11;5.10;;;2.67;;